Time,TemperatureF,DewpointF,PressureIn,WindDirection,WindDirectionDegrees,WindSpeedMPH,WindSpeedGustMPH,Humidity,HourlyPrecipIn,Conditions,Clouds,dailyrainin,SoftwareType,DateUTC
2013-03-24 00:09:00,10.3,6.4,30.15,WNW,295,0.0,0.0,84,0.00,,,0.00,Wunderground v.1.15,2013-03-24 06:09:00,
2013-03-24 00:14:00,10.4,6.3,30.15,WNW,295,0.0,0.0,83,0.00,,,0.00,Wunderground v.1.15,2013-03-24 06:14:00,
2013-03-24 00:19:00,10.2,6.3,30.16,WNW,295,0.0,0.0,84,0.00,,,0.00,Wunderground v.1.15,2013-03-24 06:19:00,
2013-03-24 00:29:00,9.9,5.8,30.16,WNW,295,0.0,0.0,83,0.00,,,0.00,Wunderground v.1.15,2013-03-24 06:29:00,
2013-03-24 00:34:00,9.8,5.7,30.16,WNW,295,0.0,0.0,83,0.00,,,0.00,Wunderground v.1.15,2013-03-24 06:34:00,
2013-03-24 00:39:00,9.6,5.5,30.16,WNW,295,0.0,0.0,83,0.00,,,0.00,Wunderground v.1.15,2013-03-24 06:39:00,
2013-03-24 00:44:00,9.5,5.4,30.16,WNW,295,0.0,0.0,83,0.00,,,0.00,Wunderground v.1.15,2013-03-24 06:44:00,
2013-03-24 00:49:00,9.4,5.3,30.17,WNW,295,0.0,0.0,83,0.00,,,0.00,Wunderground v.1.15,2013-03-24 06:49:00,
2013-03-24 00:54:00,9.6,5.5,30.17,East,81,0.0,0.0,83,0.00,,,0.00,Wunderground v.1.15,2013-03-24 06:54:00,
2013-03-24 00:59:00,9.6,5.5,30.17,East,81,0.0,0.0,83,0.00,,,0.00,Wunderground v.1.15,2013-03-24 06:59:00,
2013-03-24 01:09:00,9.5,5.1,30.17,East,92,0.0,0.0,82,0.00,,,0.00,Wunderground v.1.15,2013-03-24 07:09:00,
2013-03-24 01:14:00,9.5,5.1,30.17,ENE,78,1.0,1.0,82,0.00,,,0.00,Wunderground v.1.15,2013-03-24 07:14:00,
2013-03-24 01:19:00,9.2,4.8,30.18,ENE,78,0.0,0.0,82,0.00,,,0.00,Wunderground v.1.15,2013-03-24 07:19:00,
2013-03-24 01:24:00,8.9,4.5,30.18,ENE,78,0.0,0.0,82,0.00,,,0.00,Wunderground v.1.15,2013-03-24 07:24:00,
2013-03-24 01:29:00,8.7,4.3,30.18,ENE,78,0.0,0.0,82,0.00,,,0.00,Wunderground v.1.15,2013-03-24 07:29:00,
2013-03-24 01:39:00,8.4,4.3,30.18,ENE,78,0.0,0.0,83,0.00,,,0.00,Wunderground v.1.15,2013-03-24 07:39:00,
2013-03-24 01:44:00,8.3,4.2,30.18,ENE,78,0.0,0.0,83,0.00,,,0.00,Wunderground v.1.15,2013-03-24 07:44:00,
2013-03-24 01:49:00,8.2,4.1,30.18,ENE,78,0.0,0.0,83,0.00,,,0.00,Wunderground v.1.15,2013-03-24 07:49:00,
2013-03-24 01:54:00,8.2,4.1,30.18,ENE,78,0.0,0.0,83,0.00,,,0.00,Wunderground v.1.15,2013-03-24 07:54:00,
2013-03-24 02:00:00,8.1,4.0,30.18,ENE,78,0.0,0.0,83,0.00,,,0.00,Wunderground v.1.15,2013-03-24 08:00:00,
2013-03-24 02:09:00,8.2,4.1,30.18,ENE,78,0.0,0.0,83,0.00,,,0.00,Wunderground v.1.15,2013-03-24 08:09:00,
2013-03-24 02:14:00,8.1,3.7,30.18,ENE,78,0.0,0.0,82,0.00,,,0.00,Wunderground v.1.15,2013-03-24 08:14:00,
2013-03-24 02:24:00,8.1,3.7,30.19,East,81,0.0,0.0,82,0.00,,,0.00,Wunderground v.1.15,2013-03-24 08:24:00,
2013-03-24 02:29:00,8.0,3.6,30.19,East,81,0.0,0.0,82,0.00,,,0.00,Wunderground v.1.15,2013-03-24 08:29:00,
2013-03-24 02:39:00,7.9,3.5,30.19,East,81,0.0,0.0,82,0.00,,,0.00,Wunderground v.1.15,2013-03-24 08:39:00,
2013-03-24 02:44:00,7.7,3.4,30.19,East,81,0.0,0.0,82,0.00,,,0.00,Wunderground v.1.15,2013-03-24 08:44:00,
2013-03-24 02:49:00,7.8,3.4,30.19,East,81,0.0,0.0,82,0.00,,,0.00,Wunderground v.1.15,2013-03-24 08:49:00,
2013-03-24 03:00:00,7.7,3.4,30.19,East,81,0.0,0.0,82,0.00,,,0.00,Wunderground v.1.15,2013-03-24 09:00:00,
2013-03-24 03:09:00,7.7,3.4,30.20,East,81,0.0,0.0,82,0.00,,,0.00,Wunderground v.1.15,2013-03-24 09:09:00,
2013-03-24 03:14:00,7.6,3.3,30.20,East,81,0.0,0.0,82,0.00,,,0.00,Wunderground v.1.15,2013-03-24 09:14:00,
2013-03-24 03:19:00,7.5,3.2,30.20,East,81,0.0,3.0,82,0.00,,,0.00,Wunderground v.1.15,2013-03-24 09:19:00,
2013-03-24 03:24:00,7.4,3.1,30.20,East,81,0.0,3.0,82,0.00,,,0.00,Wunderground v.1.15,2013-03-24 09:24:00,
2013-03-24 03:29:00,7.3,3.0,30.20,East,81,0.0,0.0,82,0.00,,,0.00,Wunderground v.1.15,2013-03-24 09:29:00,
2013-03-24 03:39:00,6.8,2.5,30.20,East,81,0.0,0.0,82,0.00,,,0.00,Wunderground v.1.15,2013-03-24 09:39:00,
2013-03-24 03:44:00,6.8,2.5,30.20,East,81,0.0,0.0,82,0.00,,,0.00,Wunderground v.1.15,2013-03-24 09:44:00,
2013-03-24 03:49:00,6.6,2.3,30.20,East,81,0.0,0.0,82,0.00,,,0.00,Wunderground v.1.15,2013-03-24 09:49:00,
2013-03-24 03:54:00,6.5,2.2,30.21,East,81,0.0,0.0,82,0.00,,,0.00,Wunderground v.1.15,2013-03-24 09:54:00,
2013-03-24 04:00:00,6.5,2.2,30.21,East,81,0.0,0.0,82,0.00,,,0.00,Wunderground v.1.15,2013-03-24 10:00:00,
2013-03-24 04:09:00,6.3,2.0,30.21,East,81,0.0,0.0,82,0.00,,,0.00,Wunderground v.1.15,2013-03-24 10:09:00,
2013-03-24 04:14:00,6.2,1.9,30.21,East,81,0.0,0.0,82,0.00,,,0.00,Wunderground v.1.15,2013-03-24 10:14:00,
2013-03-24 04:24:00,6.1,1.8,30.22,East,81,0.0,0.0,82,0.00,,,0.00,Wunderground v.1.15,2013-03-24 10:24:00,
2013-03-24 04:29:00,5.9,1.6,30.22,East,81,0.0,0.0,82,0.00,,,0.00,Wunderground v.1.15,2013-03-24 10:29:00,
2013-03-24 04:34:00,5.9,1.8,30.22,East,81,0.0,0.0,83,0.00,,,0.00,Wunderground v.1.15,2013-03-24 10:34:00,
2013-03-24 04:39:00,5.7,1.7,30.22,East,81,0.0,0.0,83,0.00,,,0.00,Wunderground v.1.15,2013-03-24 10:39:00,
2013-03-24 04:49:00,5.7,1.7,30.23,East,81,0.0,0.0,83,0.00,,,0.00,Wunderground v.1.15,2013-03-24 10:49:00,
2013-03-24 04:59:00,5.6,1.6,30.23,East,81,0.0,0.0,83,0.00,,,0.00,Wunderground v.1.15,2013-03-24 10:59:00,
2013-03-24 05:09:00,5.6,1.6,30.24,East,81,0.0,0.0,83,0.00,,,0.00,Wunderground v.1.15,2013-03-24 11:09:00,
2013-03-24 05:14:00,5.6,1.6,30.24,East,81,0.0,0.0,83,0.00,,,0.00,Wunderground v.1.15,2013-03-24 11:14:00,
2013-03-24 05:19:00,5.4,1.4,30.24,East,81,0.0,0.0,83,0.00,,,0.00,Wunderground v.1.15,2013-03-24 11:19:00,
2013-03-24 05:29:00,5.3,1.0,30.25,East,81,0.0,0.0,82,0.00,,,0.00,Wunderground v.1.15,2013-03-24 11:29:00,
2013-03-24 05:39:00,5.3,1.3,30.25,East,81,0.0,0.0,83,0.00,,,0.00,Wunderground v.1.15,2013-03-24 11:39:00,
2013-03-24 05:44:00,5.1,0.8,30.25,East,81,0.0,0.0,82,0.00,,,0.00,Wunderground v.1.15,2013-03-24 11:44:00,
2013-03-24 05:49:00,4.8,0.5,30.26,East,81,0.0,0.0,82,0.00,,,0.00,Wunderground v.1.15,2013-03-24 11:49:00,
2013-03-24 05:54:00,4.8,0.8,30.26,East,81,0.0,0.0,83,0.00,,,0.00,Wunderground v.1.15,2013-03-24 11:54:00,
2013-03-24 06:00:00,4.8,0.8,30.26,East,81,0.0,0.0,83,0.00,,,0.00,Wunderground v.1.15,2013-03-24 12:00:00,
2013-03-24 06:09:00,4.9,0.9,30.27,East,81,0.0,0.0,83,0.00,,,0.00,Wunderground v.1.15,2013-03-24 12:09:00,
2013-03-24 06:19:00,4.7,0.7,30.27,East,81,0.0,0.0,83,0.00,,,0.00,Wunderground v.1.15,2013-03-24 12:19:00,
2013-03-24 06:24:00,4.5,0.2,30.28,East,81,0.0,0.0,82,0.00,,,0.00,Wunderground v.1.15,2013-03-24 12:24:00,
2013-03-24 06:29:00,4.6,0.6,30.28,East,81,0.0,0.0,83,0.00,,,0.00,Wunderground v.1.15,2013-03-24 12:29:00,
2013-03-24 06:39:00,4.6,0.6,30.29,East,81,0.0,0.0,83,0.00,,,0.00,Wunderground v.1.15,2013-03-24 12:39:00,
2013-03-24 06:44:00,4.5,0.5,30.29,East,81,0.0,0.0,83,0.00,,,0.00,Wunderground v.1.15,2013-03-24 12:44:00,
2013-03-24 06:49:00,4.5,0.5,30.29,East,81,0.0,0.0,83,0.00,,,0.00,Wunderground v.1.15,2013-03-24 12:49:00,
2013-03-24 06:54:00,4.4,0.4,30.29,East,81,0.0,0.0,83,0.00,,,0.00,Wunderground v.1.15,2013-03-24 12:54:00,
2013-03-24 07:00:00,4.3,0.0,30.29,East,81,0.0,0.0,82,0.00,,,0.00,Wunderground v.1.15,2013-03-24 13:00:00,
2013-03-24 07:09:00,4.4,0.4,30.30,East,81,0.0,0.0,83,0.00,,,0.00,Wunderground v.1.15,2013-03-24 13:09:00,
2013-03-24 07:19:00,4.5,0.5,30.30,East,81,0.0,0.0,83,0.00,,,0.00,Wunderground v.1.15,2013-03-24 13:19:00,
2013-03-24 07:29:00,4.5,0.5,30.31,East,81,0.0,0.0,83,0.00,,,0.00,Wunderground v.1.15,2013-03-24 13:29:00,
2013-03-24 07:34:00,4.5,0.5,30.31,East,81,0.0,0.0,83,0.00,,,0.00,Wunderground v.1.15,2013-03-24 13:34:00,
2013-03-24 07:39:00,4.7,0.7,30.32,East,81,0.0,0.0,83,0.00,,,0.00,Wunderground v.1.15,2013-03-24 13:39:00,
2013-03-24 07:49:00,5.0,0.7,30.32,East,81,0.0,0.0,82,0.00,,,0.00,Wunderground v.1.15,2013-03-24 13:49:00,
2013-03-24 07:59:00,5.3,1.0,30.32,East,81,0.0,0.0,82,0.00,,,0.00,Wunderground v.1.15,2013-03-24 13:59:00,
2013-03-24 08:14:00,5.8,1.5,30.32,East,81,0.0,0.0,82,0.00,,,0.00,Wunderground v.1.15,2013-03-24 14:14:00,
2013-03-24 08:19:00,6.0,1.9,30.32,East,81,0.0,0.0,83,0.00,,,0.00,Wunderground v.1.15,2013-03-24 14:19:00,
2013-03-24 08:24:00,6.3,2.2,30.32,East,81,0.0,0.0,83,0.00,,,0.00,Wunderground v.1.15,2013-03-24 14:24:00,
2013-03-24 08:29:00,6.4,2.1,30.32,East,81,0.0,0.0,82,0.00,,,0.00,Wunderground v.1.15,2013-03-24 14:29:00,
2013-03-24 08:39:00,7.2,3.1,30.32,SE,141,0.0,0.0,83,0.00,,,0.00,Wunderground v.1.15,2013-03-24 14:39:00,
2013-03-24 08:44:00,8.5,4.4,30.32,ESE,114,0.0,0.0,83,0.00,,,0.00,Wunderground v.1.15,2013-03-24 14:44:00,
2013-03-24 08:49:00,9.6,5.7,30.32,SE,145,0.0,0.0,84,0.00,,,0.00,Wunderground v.1.15,2013-03-24 14:49:00,
2013-03-24 08:54:00,12.0,7.3,30.32,SE,134,0.0,0.0,81,0.00,,,0.00,Wunderground v.1.15,2013-03-24 14:54:00,
2013-03-24 09:00:00,14.1,8.2,30.32,North,355,0.0,2.0,77,0.00,,,0.00,Wunderground v.1.15,2013-03-24 15:00:00,
2013-03-24 09:09:00,19.7,5.3,30.32,North,5,3.0,3.0,53,0.00,,,0.00,Wunderground v.1.15,2013-03-24 15:09:00,
2013-03-24 09:19:00,21.3,1.7,30.33,NNW,331,3.0,3.0,42,0.00,,,0.00,Wunderground v.1.15,2013-03-24 15:19:00,
2013-03-24 09:24:00,21.6,1.5,30.32,NNW,331,4.0,5.0,41,0.00,,,0.00,Wunderground v.1.15,2013-03-24 15:24:00,
2013-03-24 09:29:00,21.8,1.1,30.33,North,355,5.0,5.0,40,0.00,,,0.00,Wunderground v.1.15,2013-03-24 15:29:00,
2013-03-24 09:39:00,22.4,0.0,30.32,NW,309,6.0,9.0,37,0.00,,,0.00,Wunderground v.1.15,2013-03-24 15:39:00,
2013-03-24 09:44:00,22.3,-0.7,30.32,NNW,333,8.0,9.0,36,0.00,,,0.00,Wunderground v.1.15,2013-03-24 15:44:00,
2013-03-24 09:49:00,22.8,-0.2,30.32,NW,326,8.0,8.0,36,0.00,,,0.00,Wunderground v.1.15,2013-03-24 15:49:00,
2013-03-24 09:54:00,23.1,-0.5,30.32,NW,325,6.0,11.0,35,0.00,,,0.00,Wunderground v.1.15,2013-03-24 15:54:00,
2013-03-24 10:00:00,23.0,-1.2,30.32,NNW,342,6.0,9.0,34,0.00,,,0.00,Wunderground v.1.15,2013-03-24 16:00:00,
2013-03-24 10:09:00,24.0,-1.0,30.31,NNW,342,5.0,11.0,33,0.00,,,0.00,Wunderground v.1.15,2013-03-24 16:09:00,
2013-03-24 10:19:00,23.7,-0.6,30.32,NW,314,7.0,7.0,34,0.00,,,0.00,Wunderground v.1.15,2013-03-24 16:19:00,
2013-03-24 10:24:00,24.1,-0.9,30.32,NNW,332,7.0,14.0,33,0.00,,,0.00,Wunderground v.1.15,2013-03-24 16:24:00,
2013-03-24 10:29:00,24.0,-1.0,30.32,NNE,26,7.0,7.0,33,0.00,,,0.00,Wunderground v.1.15,2013-03-24 16:29:00,
2013-03-24 10:34:00,24.2,-1.5,30.32,NW,318,7.0,7.0,32,0.00,,,0.00,Wunderground v.1.15,2013-03-24 16:34:00,
2013-03-24 10:44:00,24.4,-1.3,30.32,NNW,331,7.0,8.0,32,0.00,,,0.00,Wunderground v.1.15,2013-03-24 16:44:00,
2013-03-24 10:49:00,24.5,-1.2,30.32,NNW,328,7.0,11.0,32,0.00,,,0.00,Wunderground v.1.15,2013-03-24 16:49:00,
2013-03-24 10:59:00,24.3,-1.4,30.32,NW,324,10.0,12.0,32,0.00,,,0.00,Wunderground v.1.15,2013-03-24 16:59:00,
2013-03-24 11:09:00,24.7,-1.0,30.31,NW,317,8.0,8.0,32,0.00,,,0.00,Wunderground v.1.15,2013-03-24 17:09:00,
2013-03-24 11:19:00,25.4,-1.1,30.30,NW,325,6.0,6.0,31,0.00,,,0.00,Wunderground v.1.15,2013-03-24 17:19:00,
2013-03-24 11:24:00,26.0,-0.6,30.30,NNW,331,5.0,6.0,31,0.00,,,0.00,Wunderground v.1.15,2013-03-24 17:24:00,
2013-03-24 11:29:00,26.1,-1.2,30.30,NW,322,6.0,6.0,30,0.00,,,0.00,Wunderground v.1.15,2013-03-24 17:29:00,
2013-03-24 11:34:00,26.0,-1.3,30.30,NNW,329,6.0,6.0,30,0.00,,,0.00,Wunderground v.1.15,2013-03-24 17:34:00,
2013-03-24 11:39:00,26.0,-1.3,30.30,NW,320,7.0,7.0,30,0.00,,,0.00,Wunderground v.1.15,2013-03-24 17:39:00,
2013-03-24 11:44:00,25.7,-1.5,30.30,North,360,9.0,9.0,30,0.00,,,0.00,Wunderground v.1.15,2013-03-24 17:44:00,
2013-03-24 11:54:00,26.5,0.6,30.29,NNE,13,6.0,8.0,32,0.00,,,0.00,Wunderground v.1.15,2013-03-24 17:54:00,
2013-03-24 11:59:00,26.1,-0.5,30.29,ESE,115,6.0,6.0,31,0.00,,,0.00,Wunderground v.1.15,2013-03-24 17:59:00,
2013-03-24 12:09:00,26.7,0.1,30.28,NNW,331,6.0,7.0,31,0.00,,,0.00,Wunderground v.1.15,2013-03-24 18:09:00,
2013-03-24 12:14:00,26.6,0.7,30.28,WNW,298,7.0,7.0,32,0.00,,,0.00,Wunderground v.1.15,2013-03-24 18:14:00,
2013-03-24 12:19:00,26.7,0.1,30.28,NNW,340,8.0,10.0,31,0.00,,,0.00,Wunderground v.1.15,2013-03-24 18:19:00,
2013-03-24 12:24:00,27.1,-0.3,30.28,NNW,331,8.0,10.0,30,0.00,,,0.00,Wunderground v.1.15,2013-03-24 18:24:00,
2013-03-24 12:29:00,26.7,0.1,30.28,NNW,327,9.0,18.0,31,0.00,,,0.00,Wunderground v.1.15,2013-03-24 18:29:00,
2013-03-24 12:34:00,27.0,0.3,30.27,North,355,10.0,18.0,31,0.00,,,0.00,Wunderground v.1.15,2013-03-24 18:34:00,
2013-03-24 12:44:00,27.6,1.5,30.27,NW,321,9.0,12.0,32,0.00,,,0.00,Wunderground v.1.15,2013-03-24 18:44:00,
2013-03-24 12:54:00,28.5,0.9,30.26,NNE,21,8.0,9.0,30,0.00,,,0.00,Wunderground v.1.15,2013-03-24 18:54:00,
2013-03-24 13:00:00,28.8,0.5,30.26,NNW,336,8.0,15.0,29,0.00,,,0.00,Wunderground v.1.15,2013-03-24 19:00:00,
2013-03-24 13:09:00,28.7,1.1,30.26,NW,320,10.0,10.0,30,0.00,,,0.00,Wunderground v.1.15,2013-03-24 19:09:00,
2013-03-24 13:19:00,29.2,0.8,30.25,NNW,340,9.0,11.0,29,0.00,,,0.00,Wunderground v.1.15,2013-03-24 19:19:00,
2013-03-24 13:29:00,29.1,1.5,30.24,NNW,334,7.0,7.0,30,0.00,,,0.00,Wunderground v.1.15,2013-03-24 19:29:00,
2013-03-24 13:34:00,29.3,2.4,30.24,NNW,337,7.0,9.0,31,0.00,,,0.00,Wunderground v.1.15,2013-03-24 19:34:00,
2013-03-24 13:44:00,30.3,1.8,30.23,NNW,327,8.0,11.0,29,0.00,,,0.00,Wunderground v.1.15,2013-03-24 19:44:00,
2013-03-24 13:49:00,30.5,1.2,30.23,NNW,327,8.0,8.0,28,0.00,,,0.00,Wunderground v.1.15,2013-03-24 19:49:00,
2013-03-24 13:54:00,30.8,1.5,30.24,NNW,342,9.0,9.0,28,0.00,,,0.00,Wunderground v.1.15,2013-03-24 19:54:00,
2013-03-24 13:59:00,30.5,0.4,30.22,NNW,339,9.0,9.0,27,0.00,,,0.00,Wunderground v.1.15,2013-03-24 19:59:00,
2013-03-24 14:09:00,31.3,2.7,30.22,NNW,334,6.0,8.0,29,0.00,,,0.00,Wunderground v.1.15,2013-03-24 20:09:00,
2013-03-24 14:14:00,31.9,1.6,30.22,NNW,333,7.0,8.0,27,0.00,,,0.00,Wunderground v.1.15,2013-03-24 20:14:00,
2013-03-24 14:19:00,31.7,2.3,30.21,NNW,335,7.0,7.0,28,0.00,,,0.00,Wunderground v.1.15,2013-03-24 20:19:00,
2013-03-24 14:24:00,31.4,-0.4,30.21,NNW,329,8.0,9.0,25,0.00,,,0.00,Wunderground v.1.15,2013-03-24 20:24:00,
2013-03-24 14:34:00,31.8,0.7,30.20,NNW,338,8.0,9.0,26,0.00,,,0.00,Wunderground v.1.15,2013-03-24 20:34:00,
2013-03-24 14:44:00,32.5,1.4,30.20,NW,325,9.0,11.0,26,0.00,,,0.00,Wunderground v.1.15,2013-03-24 20:44:00,
2013-03-24 14:54:00,32.7,0.7,30.18,NW,323,7.0,13.0,25,0.00,,,0.00,Wunderground v.1.15,2013-03-24 20:54:00,
2013-03-24 14:59:00,32.9,0.9,30.19,NNW,328,9.0,9.0,25,0.00,,,0.00,Wunderground v.1.15,2013-03-24 20:59:00,
2013-03-24 15:09:00,32.5,0.5,30.18,NNW,330,8.0,13.0,25,0.00,,,0.00,Wunderground v.1.15,2013-03-24 21:09:00,
2013-03-24 15:19:00,32.8,0.8,30.19,NE,40,10.0,10.0,25,0.00,,,0.00,Wunderground v.1.15,2013-03-24 21:19:00,
2013-03-24 15:24:00,32.8,0.8,30.18,NNW,329,11.0,12.0,25,0.00,,,0.00,Wunderground v.1.15,2013-03-24 21:24:00,
2013-03-24 15:29:00,32.9,0.9,30.18,West,262,11.0,14.0,25,0.00,,,0.00,Wunderground v.1.15,2013-03-24 21:29:00,
2013-03-24 15:39:00,33.1,1.9,30.18,SW,236,10.0,10.0,26,0.00,,,0.00,Wunderground v.1.15,2013-03-24 21:39:00,
2013-03-24 15:44:00,33.2,0.2,30.16,NW,315,9.0,13.0,24,0.00,,,0.00,Wunderground v.1.15,2013-03-24 21:44:00,
2013-03-24 15:54:00,33.3,-0.6,30.16,NNW,327,9.0,16.0,23,0.00,,,0.00,Wunderground v.1.15,2013-03-24 21:54:00,
2013-03-24 16:00:00,33.3,0.3,30.17,NNW,333,10.0,12.0,24,0.00,,,0.00,Wunderground v.1.15,2013-03-24 22:00:00,
2013-03-24 16:09:00,33.1,-1.7,30.17,NW,319,11.0,11.0,22,0.00,,,0.00,Wunderground v.1.15,2013-03-24 22:09:00,
2013-03-24 16:14:00,33.4,-0.5,30.17,NW,312,10.0,11.0,23,0.00,,,0.00,Wunderground v.1.15,2013-03-24 22:14:00,
2013-03-24 16:19:00,33.6,-0.3,30.17,North,355,8.0,9.0,23,0.00,,,0.00,Wunderground v.1.15,2013-03-24 22:19:00,
2013-03-24 16:24:00,33.7,-1.2,30.17,NNW,338,8.0,11.0,22,0.00,,,0.00,Wunderground v.1.15,2013-03-24 22:24:00,
2013-03-24 16:29:00,33.4,-0.5,30.16,NW,313,8.0,9.0,23,0.00,,,0.00,Wunderground v.1.15,2013-03-24 22:29:00,
2013-03-24 16:34:00,33.3,-0.6,30.16,NW,322,8.0,13.0,23,0.00,,,0.00,Wunderground v.1.15,2013-03-24 22:34:00,
2013-03-24 16:44:00,33.4,-0.5,30.17,NNW,332,12.0,15.0,23,0.00,,,0.00,Wunderground v.1.15,2013-03-24 22:44:00,
2013-03-24 16:49:00,33.1,-0.8,30.16,NW,325,10.0,10.0,23,0.00,,,0.00,Wunderground v.1.15,2013-03-24 22:49:00,
2013-03-24 16:54:00,33.2,0.2,30.16,NW,322,8.0,10.0,24,0.00,,,0.00,Wunderground v.1.15,2013-03-24 22:54:00,
2013-03-24 17:00:00,33.3,-0.6,30.17,NNW,331,8.0,20.0,23,0.00,,,0.00,Wunderground v.1.15,2013-03-24 23:00:00,
2013-03-24 17:09:00,33.4,0.4,30.17,NW,326,7.0,8.0,24,0.00,,,0.00,Wunderground v.1.15,2013-03-24 23:09:00,
2013-03-24 17:19:00,33.4,-0.5,30.17,NNW,333,9.0,13.0,23,0.00,,,0.00,Wunderground v.1.15,2013-03-24 23:19:00,
2013-03-24 17:24:00,33.5,0.5,30.18,North,355,10.0,13.0,24,0.00,,,0.00,Wunderground v.1.15,2013-03-24 23:24:00,
2013-03-24 17:29:00,33.2,-0.7,30.17,NNW,337,10.0,15.0,23,0.00,,,0.00,Wunderground v.1.15,2013-03-24 23:29:00,
2013-03-24 17:39:00,33.3,-0.6,30.17,NNW,344,8.0,14.0,23,0.00,,,0.00,Wunderground v.1.15,2013-03-24 23:39:00,
2013-03-24 17:49:00,33.0,-0.8,30.17,NW,326,9.0,9.0,23,0.00,,,0.00,Wunderground v.1.15,2013-03-24 23:49:00,
2013-03-24 17:54:00,33.1,-1.7,30.18,WNW,296,10.0,10.0,22,0.00,,,0.00,Wunderground v.1.15,2013-03-24 23:54:00,
2013-03-24 17:59:00,32.9,-1.9,30.18,NW,324,9.0,9.0,22,0.00,,,0.00,Wunderground v.1.15,2013-03-24 23:59:00,
2013-03-24 18:09:00,32.6,-0.3,30.18,NNW,331,8.0,16.0,24,0.00,,,0.00,Wunderground v.1.15,2013-03-25 00:09:00,
2013-03-24 18:14:00,32.6,0.6,30.18,NNW,333,7.0,16.0,25,0.00,,,0.00,Wunderground v.1.15,2013-03-25 00:14:00,
2013-03-24 18:24:00,32.5,-0.4,30.18,NNW,333,8.0,8.0,24,0.00,,,0.00,Wunderground v.1.15,2013-03-25 00:24:00,
2013-03-24 18:29:00,32.3,-0.5,30.18,NNW,331,8.0,8.0,24,0.00,,,0.00,Wunderground v.1.15,2013-03-25 00:29:00,
2013-03-24 18:39:00,31.9,-0.9,30.19,NNW,327,7.0,7.0,24,0.00,,,0.00,Wunderground v.1.15,2013-03-25 00:39:00,
2013-03-24 18:44:00,31.7,-1.0,30.19,NNW,339,8.0,8.0,24,0.00,,,0.00,Wunderground v.1.15,2013-03-25 00:44:00,
2013-03-24 18:49:00,31.6,-1.1,30.19,NNW,337,9.0,15.0,24,0.00,,,0.00,Wunderground v.1.15,2013-03-25 00:49:00,
2013-03-24 19:00:00,31.1,0.1,30.19,NW,320,6.0,6.0,26,0.00,,,0.00,Wunderground v.1.15,2013-03-25 01:00:00,
2013-03-24 19:09:00,30.8,-1.0,30.20,North,355,7.0,12.0,25,0.00,,,0.00,Wunderground v.1.15,2013-03-25 01:09:00,
2013-03-24 19:14:00,30.7,-1.0,30.20,NW,319,8.0,12.0,25,0.00,,,0.00,Wunderground v.1.15,2013-03-25 01:14:00,
2013-03-24 19:19:00,30.6,-1.1,30.20,WNW,302,7.0,7.0,25,0.00,,,0.00,Wunderground v.1.15,2013-03-25 01:19:00,
2013-03-24 19:24:00,30.4,-0.5,30.21,NW,315,6.0,8.0,26,0.00,,,0.00,Wunderground v.1.15,2013-03-25 01:24:00,
2013-03-24 19:34:00,30.2,-1.5,30.21,NW,309,6.0,9.0,25,0.00,,,0.00,Wunderground v.1.15,2013-03-25 01:34:00,
2013-03-24 19:39:00,30.1,-0.7,30.21,North,355,6.0,6.0,26,0.00,,,0.00,Wunderground v.1.15,2013-03-25 01:39:00,
2013-03-24 19:44:00,29.9,-0.9,30.22,NNW,335,6.0,6.0,26,0.00,,,0.00,Wunderground v.1.15,2013-03-25 01:44:00,
2013-03-24 19:49:00,29.7,-1.1,30.21,NNW,332,3.0,3.0,26,0.00,,,0.00,Wunderground v.1.15,2013-03-25 01:49:00,
2013-03-24 19:54:00,29.5,0.3,30.22,NNW,342,2.0,7.0,28,0.00,,,0.00,Wunderground v.1.15,2013-03-25 01:54:00,
2013-03-24 20:00:00,29.4,0.3,30.22,NNW,344,3.0,5.0,28,0.00,,,0.00,Wunderground v.1.15,2013-03-25 02:00:00,
2013-03-24 20:09:00,29.1,0.0,30.22,NNW,339,2.0,5.0,28,0.00,,,0.00,Wunderground v.1.15,2013-03-25 02:09:00,
2013-03-24 20:14:00,29.0,-0.1,30.22,NNW,336,3.0,6.0,28,0.00,,,0.00,Wunderground v.1.15,2013-03-25 02:14:00,
2013-03-24 20:24:00,28.8,-0.3,30.23,NNW,340,2.0,4.0,28,0.00,,,0.00,Wunderground v.1.15,2013-03-25 02:24:00,
2013-03-24 20:29:00,28.7,-0.4,30.23,NNW,330,1.0,1.0,28,0.00,,,0.00,Wunderground v.1.15,2013-03-25 02:29:00,
2013-03-24 20:39:00,28.4,0.9,30.23,NNW,331,2.0,2.0,30,0.00,,,0.00,Wunderground v.1.15,2013-03-25 02:39:00,
2013-03-24 20:49:00,28.0,-0.2,30.24,NW,323,1.0,1.0,29,0.00,,,0.00,Wunderground v.1.15,2013-03-25 02:49:00,
2013-03-24 20:54:00,27.9,1.1,30.24,NW,326,1.0,4.0,31,0.00,,,0.00,Wunderground v.1.15,2013-03-25 02:54:00,
2013-03-24 21:00:00,27.7,2.9,30.24,WNW,302,1.0,1.0,34,0.00,,,0.00,Wunderground v.1.15,2013-03-25 03:00:00,
2013-03-24 21:09:00,26.7,2.7,30.24,NNW,338,0.0,0.0,35,0.00,,,0.00,Wunderground v.1.15,2013-03-25 03:09:00,
2013-03-24 21:14:00,26.0,3.8,30.25,NNW,338,0.0,0.0,38,0.00,,,0.00,Wunderground v.1.15,2013-03-25 03:14:00,
2013-03-24 21:19:00,25.8,3.6,30.25,NNW,327,0.0,5.0,38,0.00,,,0.00,Wunderground v.1.15,2013-03-25 03:19:00,
2013-03-24 21:24:00,26.0,4.4,30.25,NNW,328,0.0,5.0,39,0.00,,,0.00,Wunderground v.1.15,2013-03-25 03:24:00,
2013-03-24 21:29:00,25.5,3.9,30.25,NNW,328,0.0,0.0,39,0.00,,,0.00,Wunderground v.1.15,2013-03-25 03:29:00,
2013-03-24 21:39:00,24.8,4.4,30.26,NNW,328,0.0,0.0,41,0.00,,,0.00,Wunderground v.1.15,2013-03-25 03:39:00,
2013-03-24 21:44:00,24.5,3.0,30.26,WNW,302,0.0,0.0,39,0.00,,,0.00,Wunderground v.1.15,2013-03-25 03:44:00,
2013-03-24 21:54:00,24.4,4.6,30.26,WNW,302,0.0,0.0,42,0.00,,,0.00,Wunderground v.1.15,2013-03-25 03:54:00,
2013-03-24 21:59:00,24.7,5.3,30.27,WNW,302,0.0,0.0,43,0.00,,,0.00,Wunderground v.1.15,2013-03-25 03:59:00,
2013-03-24 22:04:00,24.9,5.0,30.26,NW,317,0.0,0.0,42,0.00,,,0.00,Wunderground v.1.15,2013-03-25 04:04:00,
2013-03-24 22:09:00,25.4,4.4,30.26,WNW,297,0.0,0.0,40,0.00,,,0.00,Wunderground v.1.15,2013-03-25 04:09:00,
2013-03-24 22:14:00,25.6,2.9,30.26,West,274,0.0,0.0,37,0.00,,,0.00,Wunderground v.1.15,2013-03-25 04:14:00,
2013-03-24 22:19:00,25.3,3.8,30.26,West,281,0.0,0.0,39,0.00,,,0.00,Wunderground v.1.15,2013-03-25 04:19:00,
2013-03-24 22:24:00,25.3,5.4,30.26,West,275,0.0,0.0,42,0.00,,,0.00,Wunderground v.1.15,2013-03-25 04:24:00,
2013-03-24 22:29:00,25.7,3.6,30.26,NW,309,0.0,0.0,38,0.00,,,0.00,Wunderground v.1.15,2013-03-25 04:29:00,
2013-03-24 22:39:00,26.3,2.3,30.26,NW,320,0.0,0.0,35,0.00,,,0.00,Wunderground v.1.15,2013-03-25 04:39:00,
2013-03-24 22:44:00,26.4,2.4,30.27,NNW,334,0.0,0.0,35,0.00,,,0.00,Wunderground v.1.15,2013-03-25 04:44:00,
2013-03-24 22:49:00,26.4,3.6,30.27,NW,323,2.0,5.0,37,0.00,,,0.00,Wunderground v.1.15,2013-03-25 04:49:00,
2013-03-24 22:54:00,25.9,8.4,30.27,WNW,286,4.0,7.0,47,0.00,,,0.00,Wunderground v.1.15,2013-03-25 04:54:00,
2013-03-24 23:00:00,25.2,10.0,30.27,WNW,290,5.0,5.0,52,0.00,,,0.00,Wunderground v.1.15,2013-03-25 05:00:00,
2013-03-24 23:09:00,23.9,10.9,30.28,West,268,2.0,4.0,57,0.00,,,0.00,Wunderground v.1.15,2013-03-25 05:09:00,
2013-03-24 23:14:00,23.4,10.8,30.28,West,268,2.0,4.0,58,0.00,,,0.00,Wunderground v.1.15,2013-03-25 05:14:00,
2013-03-24 23:19:00,23.1,10.9,30.28,SW,236,2.0,2.0,59,0.00,,,0.00,Wunderground v.1.15,2013-03-25 05:19:00,
2013-03-24 23:24:00,22.7,10.9,30.29,SW,225,1.0,2.0,60,0.00,,,0.00,Wunderground v.1.15,2013-03-25 05:24:00,
2013-03-24 23:29:00,22.5,10.7,30.29,SW,229,0.0,0.0,60,0.00,,,0.00,Wunderground v.1.15,2013-03-25 05:29:00,
2013-03-24 23:39:00,22.1,10.7,30.29,WNW,290,0.0,0.0,61,0.00,,,0.00,Wunderground v.1.15,2013-03-25 05:39:00,
2013-03-24 23:44:00,21.9,10.5,30.29,WNW,290,0.0,0.0,61,0.00,,,0.00,Wunderground v.1.15,2013-03-25 05:44:00,
2013-03-24 23:54:00,21.5,10.5,30.29,South,175,0.0,0.0,62,0.00,,,0.00,Wunderground v.1.15,2013-03-25 05:54:00,